| time (UTC) | temp F | wind direction | speed knots | gust knots | rain 1hr in | rain 24hr in | rain mn in | humidity % | barometer mb |
| 20260510225426 | 68 | 309 | 1.7 | 2.6 | 0.00 | 0.00 | 0.00 | 58 | 1021.0 |
| 20260510224921 | 68 | 300 | 0.0 | 0.0 | 0.00 | 0.00 | 0.00 | 57 | 1020.8 |
| 20260510224419 | 67 | 284 | 0.9 | 0.9 | 0.00 | 0.00 | 0.00 | 57 | 1020.9 |
| 20260510223915 | 68 | 303 | 0.9 | 1.7 | 0.00 | 0.00 | 0.00 | 57 | 1020.8 |
| 20260510223413 | 68 | 340 | 0.0 | 0.9 | 0.00 | 0.00 | 0.00 | 58 | 1020.7 |
| 20260510222910 | 68 | 311 | 1.7 | 1.7 | 0.00 | 0.00 | 0.00 | 56 | 1020.6 |
| 20260510222408 | 67 | 306 | 0.0 | 0.0 | 0.00 | 0.00 | 0.00 | 59 | 1020.8 |
| 20260510221902 | 67 | 86 | 0.0 | 0.9 | 0.00 | 0.00 | 0.00 | 58 | 1020.6 |
| 20260510221359 | 68 | 299 | 0.9 | 0.9 | 0.00 | 0.00 | 0.00 | 58 | 1020.7 |
| 20260510220855 | 69 | 308 | 0.0 | 0.9 | 0.00 | 0.00 | 0.00 | 58 | 1020.6 |
| 20260510220352 | 69 | 300 | 0.9 | 0.9 | 0.00 | 0.00 | 0.00 | 57 | 1020.8 |
| 20260510215848 | 69 | 323 | 0.0 | 0.9 | 0.00 | 0.00 | 0.00 | 59 | 1020.6 |
| 20260510215345 | 68 | 290 | 0.0 | 0.9 | 0.00 | 0.00 | 0.00 | 58 | 1020.6 |
| 20260510214843 | 68 | 295 | 0.9 | 1.7 | 0.00 | 0.00 | 0.00 | 58 | 1020.7 |
| 20260510214340 | 68 | 323 | 1.7 | 1.7 | 0.00 | 0.00 | 0.00 | 58 | 1020.8 |
| 20260510213837 | 67 | 295 | 0.9 | 1.7 | 0.00 | 0.00 | 0.00 | 60 | 1020.9 |
| 20260510213333 | 66 | 288 | 0.0 | 0.9 | 0.00 | 0.00 | 0.00 | 65 | 1021.1 |
| 20260510212830 | 66 | 306 | 0.9 | 0.9 | 0.00 | 0.00 | 0.00 | 61 | 1021.1 |
| 20260510212327 | 67 | 314 | 0.0 | 0.0 | 0.00 | 0.00 | 0.00 | 62 | 1020.8 |
| 20260510211824 | 67 | 13 | 0.9 | 1.7 | 0.00 | 0.00 | 0.00 | 64 | 1021.2 |
| 20260510211320 | 66 | 295 | 0.0 | 0.9 | 0.00 | 0.00 | 0.00 | 66 | 1021.0 |
| 20260510210815 | 66 | 285 | 1.7 | 1.7 | 0.00 | 0.00 | 0.00 | 64 | 1020.9 |
| 20260510210310 | 66 | 298 | 2.6 | 2.6 | 0.00 | 0.00 | 0.00 | 63 | 1020.7 |
| 20260510205810 | 67 | 307 | 0.0 | 0.9 | 0.00 | 0.00 | 0.00 | 62 | 1020.8 |
| 20260510205307 | 66 | 319 | 0.9 | 0.9 | 0.00 | 0.00 | 0.00 | 64 | 1020.9 |
| 20260510204801 | 67 | 306 | 2.6 | 2.6 | 0.00 | 0.00 | 0.00 | 62 | 1021.0 |
| 20260510204258 | 67 | 281 | 0.9 | 0.9 | 0.00 | 0.00 | 0.00 | 65 | 1020.7 |
| 20260510203755 | 67 | 310 | 0.9 | 0.9 | 0.00 | 0.00 | 0.00 | 63 | 1020.8 |
| 20260510203253 | 66 | 320 | 0.0 | 0.9 | 0.00 | 0.00 | 0.00 | 66 | 1021.0 |
| 20260510202752 | 66 | 168 | 0.9 | 0.9 | 0.00 | 0.00 | 0.00 | 67 | 1020.8 |
| 20260510202248 | 66 | 312 | 0.9 | 1.7 | 0.00 | 0.00 | 0.00 | 66 | 1020.6 |
| 20260510201746 | 65 | 322 | 0.9 | 0.9 | 0.00 | 0.00 | 0.00 | 70 | 1020.6 |
| 20260510201242 | 66 | 34 | 0.9 | 1.7 | 0.00 | 0.00 | 0.00 | 65 | 1020.7 |
| 20260510200739 | 66 | 305 | 0.0 | 0.0 | 0.00 | 0.00 | 0.00 | 65 | 1020.5 |
| 20260510200237 | 67 | 327 | 0.9 | 0.9 | 0.00 | 0.00 | 0.00 | 65 | 1020.7 |
| 20260510195733 | 67 | 298 | 0.0 | 0.0 | 0.00 | 0.00 | 0.00 | 67 | 1020.9 |
| 20260510195230 | 65 | 305 | 2.6 | 2.6 | 0.00 | 0.00 | 0.00 | 66 | 1020.8 |
| 20260510194729 | 64 | 301 | 0.9 | 0.9 | 0.00 | 0.00 | 0.00 | 69 | 1021.1 |
| 20260510194226 | 64 | 343 | 0.0 | 0.9 | 0.00 | 0.00 | 0.00 | 69 | 1020.9 |
| 20260510193721 | 64 | 312 | 0.9 | 0.9 | 0.00 | 0.00 | 0.00 | 69 | 1020.8 |
| 20260510193216 | 64 | 206 | 0.9 | 1.7 | 0.00 | 0.00 | 0.00 | 69 | 1020.7 |
| 20260510192712 | 63 | 342 | 0.9 | 1.7 | 0.00 | 0.00 | 0.00 | 71 | 1020.8 |
| 20260510192208 | 63 | 342 | 0.9 | 0.9 | 0.00 | 0.00 | 0.00 | 72 | 1020.7 |
| 20260510191704 | 62 | 261 | 0.9 | 0.9 | 0.00 | 0.00 | 0.00 | 73 | 1020.6 |
| 20260510191201 | 62 | 348 | 0.0 | 0.9 | 0.00 | 0.00 | 0.00 | 72 | 1020.8 |
| 20260510190658 | 63 | 325 | 0.0 | 0.0 | 0.00 | 0.00 | 0.00 | 72 | 1021.0 |
| 20260510190155 | 62 | 324 | 0.0 | 0.0 | 0.00 | 0.00 | 0.00 | 73 | 1020.7 |
| 20260510185652 | 62 | 344 | 0.9 | 0.9 | 0.00 | 0.00 | 0.00 | 72 | 1020.6 |
| 20260510185150 | 62 | 193 | 0.9 | 1.7 | 0.00 | 0.00 | 0.00 | 72 | 1020.9 |
| 20260510184646 | 63 | 140 | 2.6 | 2.6 | 0.00 | 0.00 | 0.00 | 70 | 1020.7 |
| 20260510184142 | 64 | 359 | 0.9 | 1.7 | 0.00 | 0.00 | 0.00 | 72 | 1020.5 |
| 20260510183638 | 64 | 295 | 0.0 | 0.9 | 0.00 | 0.00 | 0.00 | 72 | 1020.6 |
| 20260510183133 | 65 | 65 | 0.9 | 1.7 | 0.00 | 0.00 | 0.00 | 71 | 1020.6 |
| 20260510182630 | 63 | 305 | 0.0 | 0.9 | 0.00 | 0.00 | 0.00 | 77 | 1020.6 |
| 20260510182125 | 65 | 322 | 0.0 | 0.9 | 0.00 | 0.00 | 0.00 | 72 | 1020.4 |
| 20260510181623 | 64 | 312 | 0.0 | 0.9 | 0.00 | 0.00 | 0.00 | 74 | 1020.6 |
| 20260510181119 | 63 | 271 | 0.9 | 0.9 | 0.00 | 0.00 | 0.00 | 75 | 1020.2 |
| 20260510180615 | 63 | 302 | 0.0 | 0.0 | 0.00 | 0.00 | 0.00 | 76 | 1020.3 |
| 20260510180114 | 64 | 286 | 0.0 | 0.0 | 0.00 | 0.00 | 0.00 | 73 | 1020.5 |
| 20260510175609 | 64 | 257 | 0.9 | 0.9 | 0.00 | 0.00 | 0.00 | 72 | 1020.6 |
| 20260510175105 | 62 | 247 | 0.9 | 0.9 | 0.00 | 0.00 | 0.00 | 74 | 1020.3 |
| 20260510174603 | 61 | 299 | 0.0 | 0.9 | 0.00 | 0.00 | 0.00 | 78 | 1020.6 |
| 20260510174100 | 61 | 268 | 0.0 | 0.9 | 0.00 | 0.00 | 0.00 | 77 | 1020.4 |
| 20260510173555 | 62 | 300 | 0.0 | 0.9 | 0.00 | 0.00 | 0.00 | 76 | 1020.7 |
| 20260510173052 | 61 | 302 | 0.0 | 0.0 | 0.00 | 0.00 | 0.00 | 78 | 1020.4 |
| 20260510172548 | 61 | 297 | 0.0 | 0.0 | 0.00 | 0.00 | 0.00 | 79 | 1020.2 |
| 20260510172044 | 60 | 328 | 0.0 | 0.0 | 0.00 | 0.00 | 0.00 | 78 | 1020.3 |
| 20260510171541 | 61 | 307 | 0.0 | 0.9 | 0.00 | 0.00 | 0.00 | 77 | 1020.6 |
| 20260510171038 | 62 | 297 | 0.9 | 0.9 | 0.00 | 0.00 | 0.00 | 75 | 1020.2 |
| 20260510170534 | 62 | 291 | 0.0 | 0.0 | 0.00 | 0.00 | 0.00 | 75 | 1019.9 |
| 20260510170031 | 61 | 316 | 0.0 | 0.0 | 0.00 | 0.00 | 0.00 | 76 | 1020.0 |
| 20260510165527 | 61 | 268 | 0.9 | 0.9 | 0.00 | 0.00 | 0.00 | 75 | 1020.0 |
| 20260510165023 | 61 | 310 | 0.0 | 0.0 | 0.00 | 0.00 | 0.00 | 75 | 1020.0 |
| 20260510164521 | 61 | 295 | 0.0 | 0.0 | 0.00 | 0.00 | 0.00 | 75 | 1020.0 |
| 20260510164017 | 61 | 318 | 0.0 | 0.0 | 0.00 | 0.00 | 0.00 | 76 | 1020.2 |
| 20260510163512 | 61 | 290 | 0.0 | 0.0 | 0.00 | 0.00 | 0.00 | 75 | 1020.0 |
| 20260510163009 | 60 | 295 | 0.0 | 0.0 | 0.00 | 0.00 | 0.00 | 74 | 1020.1 |
| 20260510162504 | 59 | 311 | 0.0 | 0.0 | 0.00 | 0.00 | 0.00 | 76 | 1020.2 |
| 20260510162001 | 59 | 347 | 0.9 | 0.9 | 0.00 | 0.00 | 0.00 | 76 | 1019.9 |
| 20260510161456 | 60 | 156 | 1.7 | 1.7 | 0.00 | 0.00 | 0.00 | 74 | 1020.0 |
| 20260510160953 | 61 | 318 | 0.0 | 0.0 | 0.00 | 0.00 | 0.00 | 73 | 1020.1 |
| 20260510160445 | 60 | 301 | 0.0 | 0.9 | 0.00 | 0.00 | 0.00 | 76 | 1019.9 |
| 20260510155943 | 59 | 310 | 0.0 | 0.9 | 0.00 | 0.00 | 0.00 | 76 | 1019.8 |
| 20260510155441 | 59 | 301 | 0.0 | 0.0 | 0.00 | 0.00 | 0.00 | 76 | 1020.1 |
| 20260510154937 | 59 | 301 | 0.0 | 0.0 | 0.00 | 0.00 | 0.00 | 77 | 1020.0 |
| 20260510154433 | 59 | 330 | 0.0 | 0.9 | 0.00 | 0.00 | 0.00 | 76 | 1020.0 |
| 20260510153931 | 60 | 297 | 0.0 | 0.9 | 0.00 | 0.00 | 0.00 | 76 | 1019.8 |
| 20260510153429 | 59 | 306 | 0.0 | 0.0 | 0.00 | 0.00 | 0.00 | 77 | 1019.7 |
| 20260510152925 | 58 | 305 | 0.0 | 0.0 | 0.00 | 0.00 | 0.00 | 78 | 1020.0 |
| 20260510152423 | 57 | 297 | 0.0 | 0.0 | 0.00 | 0.00 | 0.00 | 80 | 1019.7 |
| 20260510151919 | 57 | 359 | 0.0 | 0.9 | 0.00 | 0.00 | 0.00 | 81 | 1019.6 |
| 20260510151417 | 56 | 312 | 0.0 | 0.0 | 0.00 | 0.00 | 0.00 | 83 | 1019.4 |
| 20260510150912 | 56 | 309 | 0.0 | 0.0 | 0.00 | 0.00 | 0.00 | 82 | 1019.3 |
| 20260510150408 | 56 | 256 | 0.9 | 0.9 | 0.00 | 0.00 | 0.00 | 82 | 1019.7 |
| 20260510145904 | 56 | 304 | 0.9 | 0.9 | 0.00 | 0.00 | 0.00 | 82 | 1019.6 |
| 20260510145401 | 56 | 312 | 0.0 | 0.9 | 0.00 | 0.00 | 0.00 | 84 | 1019.5 |
| 20260510144857 | 56 | 316 | 0.0 | 0.0 | 0.00 | 0.00 | 0.00 | 85 | 1019.4 |
| 20260510144354 | 56 | 322 | 0.9 | 0.9 | 0.00 | 0.00 | 0.00 | 86 | 1019.4 |
| 20260510143849 | 56 | 322 | 0.0 | 0.0 | 0.00 | 0.00 | 0.00 | 87 | 1019.3 |
| 20260510143345 | 55 | 322 | 0.0 | 0.9 | 0.00 | 0.00 | 0.00 | 87 | 1019.4 |
| 20260510142843 | 55 | 322 | 0.0 | 0.0 | 0.00 | 0.00 | 0.00 | 88 | 1019.3 |
| 20260510142339 | 55 | 321 | 0.0 | 0.0 | 0.00 | 0.00 | 0.00 | 88 | 1019.0 |
| 20260510141836 | 55 | 321 | 0.0 | 0.0 | 0.00 | 0.00 | 0.00 | 89 | 1019.3 |
| 20260510141333 | 54 | 321 | 0.0 | 0.0 | 0.00 | 0.00 | 0.00 | 90 | 1018.9 |
| 20260510140830 | 54 | 321 | 0.0 | 0.0 | 0.00 | 0.00 | 0.00 | 92 | 1018.8 |
| 20260510140326 | 54 | 321 | 0.0 | 0.0 | 0.00 | 0.00 | 0.00 | 93 | 1019.1 |
| 20260510135819 | 53 | 321 | 0.0 | 0.0 | 0.00 | 0.00 | 0.00 | 94 | 1019.4 |
| 20260510135315 | 53 | 321 | 0.0 | 0.0 | 0.00 | 0.00 | 0.00 | 95 | 1018.9 |
| 20260510134813 | 53 | 321 | 0.0 | 0.0 | 0.00 | 0.00 | 0.00 | 95 | 1018.7 |
| 20260510134310 | 53 | 321 | 0.0 | 0.0 | 0.00 | 0.00 | 0.00 | 95 | 1018.9 |
| 20260510133806 | 52 | 320 | 0.0 | 0.0 | 0.00 | 0.00 | 0.00 | 96 | 1018.7 |
| 20260510133302 | 52 | 320 | 0.0 | 0.0 | 0.00 | 0.00 | 0.00 | 96 | 1018.8 |
| 20260510132757 | 52 | 320 | 0.0 | 0.0 | 0.00 | 0.00 | 0.00 | 96 | 1018.7 |
| 20260510132256 | 52 | 320 | 0.0 | 0.0 | 0.00 | 0.00 | 0.00 | 95 | 1018.8 |
| 20260510131752 | 52 | 320 | 0.0 | 0.0 | 0.00 | 0.00 | 0.00 | 95 | 1018.7 |
| 20260510131251 | 52 | 320 | 0.0 | 0.0 | 0.00 | 0.00 | 0.00 | 95 | 1018.7 |
| 20260510130746 | 52 | 320 | 0.0 | 0.0 | 0.00 | 0.00 | 0.00 | 95 | 1018.7 |
| 20260510130244 | 52 | 323 | 0.0 | 0.0 | 0.00 | 0.00 | 0.00 | 95 | 1018.4 |
| 20260510125740 | 52 | 297 | 0.0 | 0.0 | 0.00 | 0.00 | 0.00 | 95 | 1018.7 |
| 20260510125236 | 52 | 297 | 0.0 | 0.0 | 0.00 | 0.00 | 0.00 | 94 | 1018.8 |
| 20260510124733 | 53 | 297 | 0.0 | 0.0 | 0.00 | 0.00 | 0.00 | 94 | 1019.0 |
| 20260510124231 | 53 | 297 | 0.0 | 0.0 | 0.00 | 0.00 | 0.00 | 94 | 1018.8 |
| 20260510123725 | 53 | 297 | 0.0 | 0.0 | 0.00 | 0.00 | 0.00 | 94 | 1019.1 |
| 20260510123222 | 53 | 298 | 0.0 | 0.0 | 0.00 | 0.00 | 0.00 | 95 | 1018.9 |
| 20260510122718 | 53 | 297 | 0.0 | 0.0 | 0.00 | 0.00 | 0.00 | 95 | 1018.6 |
| 20260510122215 | 53 | 296 | 0.0 | 0.0 | 0.00 | 0.00 | 0.00 | 95 | 1018.7 |
| 20260510121711 | 52 | 302 | 0.0 | 0.0 | 0.00 | 0.00 | 0.00 | 95 | 1018.8 |
| 20260510121209 | 52 | 309 | 0.0 | 0.0 | 0.00 | 0.00 | 0.00 | 96 | 1018.9 |
| 20260510120705 | 52 | 310 | 0.0 | 0.0 | 0.00 | 0.00 | 0.00 | 96 | 1018.9 |
| 20260510120202 | 52 | 304 | 0.0 | 0.0 | 0.00 | 0.00 | 0.00 | 95 | 1018.7 |
| 20260510115658 | 53 | 304 | 0.0 | 0.0 | 0.00 | 0.00 | 0.00 | 95 | 1018.3 |
| 20260510115156 | 53 | 304 | 0.0 | 0.0 | 0.00 | 0.00 | 0.00 | 95 | 1018.6 |
| 20260510114651 | 53 | 303 | 0.0 | 0.0 | 0.00 | 0.00 | 0.00 | 95 | 1018.5 |
| 20260510114148 | 53 | 304 | 0.0 | 0.0 | 0.00 | 0.00 | 0.00 | 95 | 1018.4 |
| 20260510113643 | 53 | 308 | 0.9 | 0.9 | 0.00 | 0.00 | 0.00 | 95 | 1018.4 |
| 20260510113140 | 53 | 305 | 0.0 | 0.0 | 0.00 | 0.00 | 0.00 | 95 | 1018.5 |
| 20260510112637 | 53 | 304 | 0.0 | 0.0 | 0.00 | 0.00 | 0.00 | 95 | 1018.7 |
| 20260510112134 | 53 | 311 | 0.0 | 0.0 | 0.00 | 0.00 | 0.00 | 95 | 1018.3 |
| 20260510111630 | 53 | 296 | 0.0 | 0.9 | 0.00 | 0.00 | 0.00 | 96 | 1018.4 |
| 20260510111126 | 53 | 296 | 0.9 | 0.9 | 0.00 | 0.00 | 0.00 | 96 | 1018.3 |
| 20260510110622 | 53 | 296 | 0.0 | 0.0 | 0.00 | 0.00 | 0.00 | 96 | 1018.1 |
| 20260510110119 | 53 | 296 | 0.0 | 0.0 | 0.00 | 0.00 | 0.00 | 96 | 1018.3 |
| 20260510105615 | 53 | 297 | 0.0 | 0.0 | 0.00 | 0.00 | 0.00 | 95 | 1018.1 |
| 20260510105109 | 53 | 297 | 0.0 | 0.0 | 0.00 | 0.00 | 0.00 | 95 | 1018.1 |
| 20260510104606 | 53 | 297 | 0.0 | 0.0 | 0.00 | 0.00 | 0.00 | 95 | 1017.9 |
| 20260510104103 | 53 | 297 | 0.0 | 0.0 | 0.00 | 0.00 | 0.00 | 94 | 1017.9 |
| 20260510103600 | 53 | 297 | 0.0 | 0.0 | 0.00 | 0.00 | 0.00 | 95 | 1017.9 |
| 20260510103056 | 53 | 299 | 0.0 | 0.0 | 0.00 | 0.00 | 0.00 | 95 | 1017.6 |
| 20260510102551 | 53 | 299 | 0.0 | 0.0 | 0.00 | 0.00 | 0.00 | 93 | 1017.7 |
| 20260510102047 | 54 | 299 | 0.0 | 0.0 | 0.00 | 0.00 | 0.00 | 93 | 1017.8 |
| 20260510101545 | 53 | 299 | 0.0 | 0.0 | 0.00 | 0.00 | 0.00 | 93 | 1017.6 |
| 20260510101044 | 53 | 299 | 0.9 | 0.9 | 0.00 | 0.00 | 0.00 | 94 | 1017.4 |
| 20260510100539 | 53 | 299 | 0.0 | 0.0 | 0.00 | 0.00 | 0.00 | 94 | 1017.1 |
| 20260510100037 | 52 | 299 | 0.0 | 0.9 | 0.00 | 0.00 | 0.00 | 94 | 1017.1 |
| 20260510095533 | 52 | 299 | 0.0 | 0.0 | 0.00 | 0.00 | 0.00 | 94 | 1017.2 |
| 20260510095032 | 52 | 299 | 0.0 | 0.0 | 0.00 | 0.00 | 0.00 | 95 | 1016.9 |
| 20260510094527 | 52 | 299 | 0.0 | 0.0 | 0.00 | 0.00 | 0.00 | 94 | 1016.9 |
| 20260510094023 | 52 | 299 | 0.0 | 0.0 | 0.00 | 0.00 | 0.00 | 94 | 1017.2 |
| 20260510093518 | 52 | 299 | 0.0 | 0.0 | 0.00 | 0.00 | 0.00 | 93 | 1017.2 |
| 20260510093015 | 52 | 299 | 0.0 | 0.0 | 0.00 | 0.00 | 0.00 | 93 | 1017.1 |
| 20260510092513 | 53 | 299 | 0.0 | 0.0 | 0.00 | 0.00 | 0.00 | 92 | 1017.3 |
| 20260510092012 | 53 | 299 | 0.0 | 0.0 | 0.00 | 0.00 | 0.00 | 92 | 1017.3 |
| 20260510091509 | 53 | 299 | 0.0 | 0.0 | 0.00 | 0.00 | 0.00 | 92 | 1017.1 |
| 20260510091005 | 53 | 299 | 0.0 | 0.0 | 0.00 | 0.00 | 0.00 | 91 | 1017.1 |
| 20260510090503 | 53 | 299 | 0.0 | 0.0 | 0.00 | 0.00 | 0.00 | 91 | 1017.2 |
| 20260510085957 | 53 | 299 | 0.0 | 0.0 | 0.00 | 0.00 | 0.00 | 90 | 1017.0 |
| 20260510085453 | 53 | 299 | 0.0 | 0.0 | 0.00 | 0.00 | 0.00 | 90 | 1017.1 |
| 20260510084949 | 54 | 299 | 0.0 | 0.0 | 0.00 | 0.00 | 0.00 | 89 | 1017.2 |
| 20260510084446 | 54 | 299 | 0.0 | 0.0 | 0.00 | 0.00 | 0.00 | 89 | 1016.9 |
| 20260510083943 | 54 | 299 | 0.0 | 0.0 | 0.00 | 0.00 | 0.00 | 88 | 1016.8 |
| 20260510083439 | 54 | 299 | 0.0 | 0.0 | 0.00 | 0.00 | 0.00 | 88 | 1016.9 |
| 20260510082934 | 55 | 299 | 0.0 | 0.0 | 0.00 | 0.00 | 0.00 | 87 | 1016.8 |
| 20260510082433 | 55 | 299 | 0.0 | 0.0 | 0.00 | 0.00 | 0.00 | 87 | 1016.8 |
| 20260510081931 | 55 | 299 | 0.0 | 0.0 | 0.00 | 0.00 | 0.00 | 86 | 1016.8 |
| 20260510081427 | 55 | 299 | 0.0 | 0.0 | 0.00 | 0.00 | 0.00 | 86 | 1016.8 |
| 20260510080924 | 55 | 299 | 0.0 | 0.0 | 0.00 | 0.00 | 0.00 | 86 | 1016.9 |
| 20260510080423 | 55 | 299 | 0.0 | 0.0 | 0.00 | 0.00 | 0.00 | 85 | 1017.0 |
| 20260510075920 | 56 | 299 | 0.0 | 0.0 | 0.00 | 0.00 | 0.00 | 84 | 1016.6 |
| 20260510075418 | 56 | 299 | 0.0 | 0.0 | 0.00 | 0.00 | 0.00 | 83 | 1016.7 |
| 20260510074914 | 57 | 299 | 0.0 | 0.0 | 0.00 | 0.00 | 0.00 | 82 | 1017.0 |
| 20260510074412 | 57 | 299 | 0.0 | 0.0 | 0.00 | 0.00 | 0.00 | 81 | 1016.8 |
| 20260510073908 | 57 | 299 | 0.0 | 0.0 | 0.00 | 0.00 | 0.00 | 81 | 1016.9 |
| 20260510073403 | 57 | 299 | 0.0 | 0.0 | 0.00 | 0.00 | 0.00 | 81 | 1016.8 |
| 20260510072900 | 57 | 299 | 0.0 | 0.0 | 0.00 | 0.00 | 0.00 | 81 | 1016.7 |
| 20260510072357 | 58 | 299 | 0.0 | 0.0 | 0.00 | 0.00 | 0.00 | 79 | 1016.9 |
| 20260510071852 | 58 | 299 | 0.0 | 0.0 | 0.00 | 0.00 | 0.00 | 78 | 1016.7 |
| 20260510071349 | 58 | 299 | 0.0 | 0.0 | 0.00 | 0.00 | 0.00 | 78 | 1016.8 |
| 20260510070848 | 59 | 299 | 0.0 | 0.0 | 0.00 | 0.00 | 0.00 | 77 | 1016.6 |
| 20260510070344 | 59 | 299 | 0.0 | 0.0 | 0.00 | 0.00 | 0.00 | 77 | 1016.9 |
| 20260510065844 | 59 | 299 | 0.0 | 0.0 | 0.00 | 0.00 | 0.00 | 75 | 1016.8 |
| 20260510065341 | 60 | 299 | 0.0 | 0.0 | 0.00 | 0.00 | 0.00 | 75 | 1016.7 |
| 20260510064838 | 60 | 299 | 0.0 | 0.0 | 0.00 | 0.00 | 0.00 | 75 | 1016.6 |
| 20260510064336 | 60 | 299 | 0.0 | 0.0 | 0.00 | 0.00 | 0.00 | 75 | 1016.6 |
| 20260510063832 | 60 | 299 | 0.0 | 0.0 | 0.00 | 0.00 | 0.00 | 74 | 1016.7 |
| 20260510063329 | 60 | 299 | 0.0 | 0.0 | 0.00 | 0.00 | 0.00 | 73 | 1016.6 |
| 20260510062825 | 60 | 299 | 0.0 | 0.0 | 0.00 | 0.00 | 0.00 | 72 | 1016.6 |
| 20260510062321 | 61 | 299 | 0.0 | 0.0 | 0.00 | 0.00 | 0.00 | 72 | 1016.5 |
| 20260510061816 | 61 | 299 | 0.0 | 0.0 | 0.00 | 0.00 | 0.00 | 71 | 1016.5 |
| 20260510061314 | 62 | 299 | 0.0 | 0.0 | 0.00 | 0.00 | 0.00 | 70 | 1016.5 |
| 20260510060809 | 62 | 299 | 0.0 | 0.0 | 0.00 | 0.00 | 0.00 | 68 | 1016.6 |
| 20260510060307 | 63 | 299 | 0.0 | 0.0 | 0.00 | 0.00 | 0.00 | 67 | 1016.7 |
| 20260510055803 | 64 | 300 | 0.0 | 0.0 | 0.00 | 0.00 | 0.00 | 66 | 1016.4 |
| 20260510055306 | 64 | 310 | 0.0 | 0.0 | 0.00 | 0.00 | 0.00 | 64 | 1016.5 |
| 20260510054801 | 65 | 277 | 0.0 | 0.0 | 0.00 | 0.00 | 0.00 | 63 | 1016.4 |
| 20260510054257 | 65 | 276 | 0.0 | 0.0 | 0.00 | 0.00 | 0.00 | 63 | 1016.5 |
| 20260510053752 | 65 | 284 | 0.9 | 0.9 | 0.00 | 0.00 | 0.00 | 62 | 1016.5 |
| 20260510053248 | 65 | 289 | 0.0 | 0.0 | 0.00 | 0.00 | 0.00 | 63 | 1016.3 |
| 20260510052744 | 65 | 254 | 0.9 | 0.9 | 0.00 | 0.00 | 0.00 | 63 | 1016.4 |
| 20260510052240 | 65 | 307 | 0.9 | 0.9 | 0.00 | 0.00 | 0.00 | 63 | 1016.6 |
| 20260510051736 | 66 | 292 | 0.0 | 0.0 | 0.00 | 0.00 | 0.00 | 62 | 1016.5 |
| 20260510051233 | 66 | 311 | 0.0 | 0.9 | 0.00 | 0.00 | 0.00 | 62 | 1016.7 |
| 20260510050730 | 66 | 318 | 0.0 | 0.0 | 0.00 | 0.00 | 0.00 | 62 | 1016.6 |
| 20260510050227 | 66 | 293 | 0.0 | 0.9 | 0.00 | 0.00 | 0.00 | 62 | 1016.7 |
| 20260510045724 | 66 | 305 | 0.0 | 0.0 | 0.00 | 0.00 | 0.00 | 62 | 1016.4 |
| 20260510045220 | 67 | 300 | 0.0 | 0.9 | 0.00 | 0.00 | 0.00 | 62 | 1016.2 |
| 20260510044717 | 66 | 310 | 0.9 | 1.7 | 0.00 | 0.00 | 0.00 | 61 | 1016.4 |
| 20260510044215 | 67 | 296 | 0.0 | 0.0 | 0.00 | 0.00 | 0.00 | 61 | 1016.2 |
| 20260510043710 | 66 | 301 | 0.0 | 0.0 | 0.00 | 0.00 | 0.00 | 61 | 1016.4 |
| 20260510043207 | 67 | 294 | 0.0 | 0.0 | 0.00 | 0.00 | 0.00 | 61 | 1016.3 |
| 20260510042704 | 67 | 292 | 0.0 | 0.0 | 0.00 | 0.00 | 0.00 | 61 | 1016.2 |
| 20260510042200 | 67 | 316 | 0.0 | 0.0 | 0.00 | 0.00 | 0.00 | 60 | 1016.0 |
| 20260510041657 | 67 | 308 | 0.0 | 0.0 | 0.00 | 0.00 | 0.00 | 60 | 1016.1 |
| 20260510041154 | 67 | 299 | 0.0 | 0.9 | 0.00 | 0.00 | 0.00 | 60 | 1015.9 |
| 20260510040651 | 67 | 312 | 0.9 | 0.9 | 0.00 | 0.00 | 0.00 | 59 | 1015.6 |
| 20260510040148 | 68 | 301 | 0.0 | 0.9 | 0.00 | 0.00 | 0.00 | 58 | 1015.7 |
| 20260510035643 | 68 | 297 | 0.0 | 0.9 | 0.00 | 0.00 | 0.00 | 57 | 1015.8 |
| 20260510035139 | 68 | 308 | 0.0 | 0.0 | 0.00 | 0.00 | 0.00 | 58 | 1015.8 |
| 20260510034636 | 68 | 299 | 0.0 | 0.0 | 0.00 | 0.00 | 0.00 | 56 | 1015.6 |
| 20260510034133 | 68 | 313 | 0.0 | 0.0 | 0.00 | 0.00 | 0.00 | 56 | 1015.5 |
| 20260510033629 | 68 | 306 | 0.0 | 0.0 | 0.00 | 0.00 | 0.00 | 55 | 1015.7 |
| 20260510033127 | 68 | 291 | 0.0 | 0.9 | 0.00 | 0.00 | 0.00 | 55 | 1015.5 |
| 20260510032623 | 69 | 304 | 0.9 | 0.9 | 0.00 | 0.00 | 0.00 | 55 | 1015.5 |
| 20260510032119 | 69 | 304 | 0.0 | 0.0 | 0.00 | 0.00 | 0.00 | 55 | 1015.5 |
| 20260510031614 | 69 | 293 | 0.0 | 0.9 | 0.00 | 0.00 | 0.00 | 54 | 1015.6 |
| 20260510031111 | 69 | 315 | 0.0 | 0.0 | 0.00 | 0.00 | 0.00 | 53 | 1015.4 |
| 20260510030605 | 70 | 295 | 0.0 | 0.9 | 0.00 | 0.00 | 0.00 | 53 | 1015.4 |
| 20260510030103 | 70 | 292 | 0.0 | 0.0 | 0.00 | 0.00 | 0.00 | 53 | 1015.5 |
| 20260510025600 | 71 | 292 | 0.0 | 0.0 | 0.00 | 0.00 | 0.00 | 51 | 1015.6 |
| 20260510025058 | 71 | 302 | 0.0 | 0.0 | 0.00 | 0.00 | 0.00 | 51 | 1015.5 |
| 20260510024554 | 71 | 307 | 0.9 | 1.7 | 0.00 | 0.00 | 0.00 | 50 | 1015.3 |
| 20260510024050 | 72 | 301 | 0.0 | 0.0 | 0.00 | 0.00 | 0.00 | 49 | 1015.6 |
| 20260510023547 | 72 | 302 | 0.0 | 0.0 | 0.00 | 0.00 | 0.00 | 48 | 1015.5 |
| 20260510023044 | 72 | 317 | 0.9 | 0.9 | 0.00 | 0.00 | 0.00 | 47 | 1015.5 |
| 20260510022543 | 72 | 298 | 0.0 | 0.0 | 0.00 | 0.00 | 0.00 | 46 | 1015.5 |
| 20260510022038 | 73 | 243 | 0.9 | 0.9 | 0.00 | 0.00 | 0.00 | 46 | 1015.7 |
| 20260510021535 | 73 | 300 | 0.0 | 0.9 | 0.00 | 0.00 | 0.00 | 43 | 1015.4 |
| 20260510021032 | 73 | 299 | 0.0 | 0.0 | 0.00 | 0.00 | 0.00 | 41 | 1015.6 |
| 20260510020526 | 73 | 259 | 0.9 | 0.9 | 0.00 | 0.00 | 0.00 | 41 | 1015.7 |
| 20260510020022 | 73 | 287 | 0.0 | 0.0 | 0.00 | 0.00 | 0.00 | 41 | 1015.6 |
| 20260510015518 | 74 | 303 | 0.0 | 0.0 | 0.00 | 0.00 | 0.00 | 39 | 1015.5 |
| 20260510015014 | 74 | 303 | 0.0 | 0.0 | 0.00 | 0.00 | 0.00 | 41 | 1015.5 |
| 20260510014511 | 74 | 304 | 0.0 | 0.9 | 0.00 | 0.00 | 0.00 | 42 | 1015.5 |
| 20260510014008 | 75 | 302 | 0.9 | 0.9 | 0.00 | 0.00 | 0.00 | 41 | 1015.6 |
| 20260510013502 | 75 | 293 | 0.0 | 0.9 | 0.00 | 0.00 | 0.00 | 40 | 1015.8 |
| 20260510012958 | 76 | 302 | 0.0 | 0.0 | 0.00 | 0.00 | 0.00 | 41 | 1015.6 |
| 20260510012447 | 76 | 291 | 0.9 | 0.9 | 0.00 | 0.00 | 0.00 | 40 | 1015.8 |
| 20260510011942 | 76 | 307 | 0.0 | 0.0 | 0.00 | 0.00 | 0.00 | 40 | 1016.0 |
| 20260510011437 | 76 | 302 | 0.0 | 0.9 | 0.00 | 0.00 | 0.00 | 38 | 1016.0 |
| 20260510010934 | 77 | 303 | 0.0 | 0.9 | 0.00 | 0.00 | 0.00 | 36 | 1015.7 |
| 20260510010431 | 77 | 298 | 0.9 | 0.9 | 0.00 | 0.00 | 0.00 | 35 | 1015.9 |
| 20260510005928 | 77 | 302 | 0.9 | 0.9 | 0.00 | 0.00 | 0.00 | 33 | 1015.6 |
| 20260510005424 | 77 | 302 | 0.0 | 0.9 | 0.00 | 0.00 | 0.00 | 32 | 1015.8 |
| 20260510004921 | 77 | 304 | 0.0 | 0.0 | 0.00 | 0.00 | 0.00 | 31 | 1015.7 |
| 20260510004419 | 77 | 307 | 0.9 | 1.7 | 0.00 | 0.00 | 0.00 | 30 | 1015.9 |
| 20260510003916 | 78 | 304 | 0.0 | 0.9 | 0.00 | 0.00 | 0.00 | 29 | 1015.9 |
| 20260510003414 | 78 | 305 | 0.9 | 0.9 | 0.00 | 0.00 | 0.00 | 31 | 1015.7 |
| 20260510002912 | 78 | 293 | 1.7 | 2.6 | 0.00 | 0.00 | 0.00 | 29 | 1015.9 |
| 20260510002410 | 78 | 296 | 0.0 | 0.9 | 0.00 | 0.00 | 0.00 | 30 | 1016.0 |
| 20260510001906 | 78 | 306 | 0.0 | 0.0 | 0.00 | 0.00 | 0.00 | 32 | 1016.2 |
| 20260510001404 | 78 | 307 | 0.9 | 0.9 | 0.00 | 0.00 | 0.00 | 32 | 1016.0 |
| 20260510000900 | 78 | 306 | 0.9 | 0.9 | 0.00 | 0.00 | 0.00 | 31 | 1015.8 |
| 20260510000357 | 78 | 300 | 0.9 | 0.9 | 0.00 | 0.00 | 0.00 | 29 | 1016.0 |
| 20260509235853 | 78 | 307 | 0.9 | 0.9 | 0.00 | 0.00 | 0.00 | 31 | 1016.0 |
| 20260509235350 | 78 | 312 | 0.0 | 0.9 | 0.00 | 0.00 | 0.00 | 33 | 1016.1 |
| 20260509234846 | 78 | 309 | 1.7 | 1.7 | 0.00 | 0.00 | 0.00 | 29 | 1016.2 |
| 20260509234343 | 78 | 298 | 0.0 | 0.9 | 0.00 | 0.00 | 0.00 | 29 | 1016.1 |
| 20260509233842 | 78 | 303 | 0.0 | 0.0 | 0.00 | 0.00 | 0.00 | 30 | 1016.3 |
| 20260509233339 | 78 | 294 | 0.9 | 0.9 | 0.00 | 0.00 | 0.00 | 31 | 1016.3 |
| 20260509232834 | 78 | 313 | 0.0 | 0.0 | 0.00 | 0.00 | 0.00 | 29 | 1016.2 |
| 20260509232333 | 77 | 310 | 0.0 | 0.0 | 0.00 | 0.00 | 0.00 | 27 | 1016.2 |
| 20260509231828 | 77 | 293 | 0.0 | 0.0 | 0.00 | 0.00 | 0.00 | 31 | 1016.5 |
| 20260509231325 | 78 | 293 | 0.9 | 0.9 | 0.00 | 0.00 | 0.00 | 28 | 1016.5 |
| 20260509230823 | 77 | 306 | 0.0 | 0.9 | 0.00 | 0.00 | 0.00 | 31 | 1016.6 |
| 20260509230320 | 78 | 300 | 0.0 | 0.9 | 0.00 | 0.00 | 0.00 | 30 | 1016.6 |
| 20260509225815 | 77 | 296 | 0.0 | 0.9 | 0.00 | 0.00 | 0.00 | 33 | 1017.0 |